sensor_id;sensor_type;location;lat;lon;timestamp;P1;durP1;ratioP1;P2;durP2;ratioP2
23720;SDS011;42950;52.134;5.578;2022-12-11T00:02:18;95.18;;;32.22;;
23720;SDS011;42950;52.134;5.578;2022-12-11T00:04:44;91.28;;;32.92;;
23720;SDS011;42950;52.134;5.578;2022-12-11T00:07:10;94.93;;;32.50;;
23720;SDS011;42950;52.134;5.578;2022-12-11T00:09:35;88.90;;;32.67;;
23720;SDS011;42950;52.134;5.578;2022-12-11T00:12:01;89.78;;;32.42;;
23720;SDS011;42950;52.134;5.578;2022-12-11T00:14:27;94.25;;;33.67;;
23720;SDS011;42950;52.134;5.578;2022-12-11T00:16:53;96.88;;;32.80;;
23720;SDS011;42950;52.134;5.578;2022-12-11T00:19:19;94.63;;;32.53;;
23720;SDS011;42950;52.134;5.578;2022-12-11T00:21:44;93.10;;;33.25;;
23720;SDS011;42950;52.134;5.578;2022-12-11T00:24:10;89.93;;;33.75;;
23720;SDS011;42950;52.134;5.578;2022-12-11T00:26:35;88.28;;;33.08;;
23720;SDS011;42950;52.134;5.578;2022-12-11T00:29:01;87.15;;;32.22;;
23720;SDS011;42950;52.134;5.578;2022-12-11T00:31:28;93.10;;;33.15;;
23720;SDS011;42950;52.134;5.578;2022-12-11T00:33:53;93.80;;;33.17;;
23720;SDS011;42950;52.134;5.578;2022-12-11T00:36:20;93.60;;;33.13;;
23720;SDS011;42950;52.134;5.578;2022-12-11T00:38:48;94.35;;;33.30;;
23720;SDS011;42950;52.134;5.578;2022-12-11T00:41:14;85.45;;;32.40;;
23720;SDS011;42950;52.134;5.578;2022-12-11T00:43:40;90.78;;;33.55;;
23720;SDS011;42950;52.134;5.578;2022-12-11T00:46:06;84.75;;;31.58;;
23720;SDS011;42950;52.134;5.578;2022-12-11T00:48:32;92.55;;;32.95;;
23720;SDS011;42950;52.134;5.578;2022-12-11T00:50:58;90.13;;;33.40;;
23720;SDS011;42950;52.134;5.578;2022-12-11T00:53:24;88.93;;;32.78;;
23720;SDS011;42950;52.134;5.578;2022-12-11T00:55:49;90.15;;;33.45;;
23720;SDS011;42950;52.134;5.578;2022-12-11T00:58:15;88.10;;;33.03;;
23720;SDS011;42950;52.134;5.578;2022-12-11T01:00:41;99.57;;;34.17;;
23720;SDS011;42950;52.134;5.578;2022-12-11T01:03:07;94.35;;;34.15;;
23720;SDS011;42950;52.134;5.578;2022-12-11T01:05:34;92.07;;;33.95;;
23720;SDS011;42950;52.134;5.578;2022-12-11T01:07:59;84.95;;;33.03;;
23720;SDS011;42950;52.134;5.578;2022-12-11T01:10:25;92.72;;;34.15;;
23720;SDS011;42950;52.134;5.578;2022-12-11T01:12:54;95.68;;;35.17;;
23720;SDS011;42950;52.134;5.578;2022-12-11T01:15:22;103.20;;;34.42;;
23720;SDS011;42950;52.134;5.578;2022-12-11T01:17:51;93.68;;;35.53;;
23720;SDS011;42950;52.134;5.578;2022-12-11T01:20:17;93.13;;;33.53;;
23720;SDS011;42950;52.134;5.578;2022-12-11T01:22:44;86.75;;;33.83;;
23720;SDS011;42950;52.134;5.578;2022-12-11T01:25:10;90.03;;;34.05;;
23720;SDS011;42950;52.134;5.578;2022-12-11T01:27:36;90.47;;;33.67;;
23720;SDS011;42950;52.134;5.578;2022-12-11T01:30:03;87.57;;;33.17;;
23720;SDS011;42950;52.134;5.578;2022-12-11T01:32:31;89.43;;;33.75;;
23720;SDS011;42950;52.134;5.578;2022-12-11T01:34:58;89.93;;;33.33;;
23720;SDS011;42950;52.134;5.578;2022-12-11T01:37:24;88.90;;;33.80;;
23720;SDS011;42950;52.134;5.578;2022-12-11T01:39:50;92.68;;;34.22;;
23720;SDS011;42950;52.134;5.578;2022-12-11T01:42:19;98.28;;;34.35;;
23720;SDS011;42950;52.134;5.578;2022-12-11T01:47:10;94.22;;;35.00;;
23720;SDS011;42950;52.134;5.578;2022-12-11T01:49:36;101.60;;;34.03;;
23720;SDS011;42950;52.134;5.578;2022-12-11T01:52:10;107.00;;;35.60;;
23720;SDS011;42950;52.134;5.578;2022-12-11T01:54:43;97.28;;;35.15;;
23720;SDS011;42950;52.134;5.578;2022-12-11T01:57:09;100.20;;;35.85;;
23720;SDS011;42950;52.134;5.578;2022-12-11T01:59:38;100.40;;;36.10;;
23720;SDS011;42950;52.134;5.578;2022-12-11T02:02:09;93.65;;;33.90;;
23720;SDS011;42950;52.134;5.578;2022-12-11T02:04:40;102.05;;;36.55;;
23720;SDS011;42950;52.134;5.578;2022-12-11T02:07:08;108.60;;;36.20;;
23720;SDS011;42950;52.134;5.578;2022-12-11T02:09:34;107.18;;;36.25;;
23720;SDS011;42950;52.134;5.578;2022-12-11T02:17:25;112.90;;;37.65;;
23720;SDS011;42950;52.134;5.578;2022-12-11T02:22:56;106.25;;;37.88;;
23720;SDS011;42950;52.134;5.578;2022-12-11T02:28:20;119.25;;;39.00;;
23720;SDS011;42950;52.134;5.578;2022-12-11T02:30:59;116.90;;;37.88;;
23720;SDS011;42950;52.134;5.578;2022-12-11T02:33:33;111.82;;;38.33;;
23720;SDS011;42950;52.134;5.578;2022-12-11T02:36:07;107.85;;;37.00;;
23720;SDS011;42950;52.134;5.578;2022-12-11T02:38:34;106.50;;;36.67;;
23720;SDS011;42950;52.134;5.578;2022-12-11T02:41:04;119.65;;;38.55;;
23720;SDS011;42950;52.134;5.578;2022-12-11T02:43:32;105.72;;;36.95;;
23720;SDS011;42950;52.134;5.578;2022-12-11T02:46:00;109.85;;;37.53;;
23720;SDS011;42950;52.134;5.578;2022-12-11T02:48:28;100.82;;;36.13;;
23720;SDS011;42950;52.134;5.578;2022-12-11T02:50:56;100.28;;;35.45;;
23720;SDS011;42950;52.134;5.578;2022-12-11T02:53:24;100.18;;;35.28;;
23720;SDS011;42950;52.134;5.578;2022-12-11T02:56:00;102.75;;;36.13;;
23720;SDS011;42950;52.134;5.578;2022-12-11T02:58:34;96.22;;;33.88;;
23720;SDS011;42950;52.134;5.578;2022-12-11T03:01:04;96.18;;;34.35;;
23720;SDS011;42950;52.134;5.578;2022-12-11T03:03:29;99.55;;;35.78;;
23720;SDS011;42950;52.134;5.578;2022-12-11T03:05:55;98.00;;;35.25;;
23720;SDS011;42950;52.134;5.578;2022-12-11T03:08:20;105.78;;;37.80;;
23720;SDS011;42950;52.134;5.578;2022-12-11T03:10:46;96.68;;;37.03;;
23720;SDS011;42950;52.134;5.578;2022-12-11T03:13:12;98.65;;;34.95;;
23720;SDS011;42950;52.134;5.578;2022-12-11T03:18:33;99.65;;;37.17;;
23720;SDS011;42950;52.134;5.578;2022-12-11T03:26:28;96.32;;;36.13;;
23720;SDS011;42950;52.134;5.578;2022-12-11T03:28:57;91.32;;;34.45;;
23720;SDS011;42950;52.134;5.578;2022-12-11T03:31:28;90.22;;;35.78;;
23720;SDS011;42950;52.134;5.578;2022-12-11T03:34:01;92.30;;;36.25;;
23720;SDS011;42950;52.134;5.578;2022-12-11T03:36:33;83.25;;;33.80;;
23720;SDS011;42950;52.134;5.578;2022-12-11T03:39:05;84.75;;;34.53;;
23720;SDS011;42950;52.134;5.578;2022-12-11T03:41:33;87.78;;;35.40;;
23720;SDS011;42950;52.134;5.578;2022-12-11T03:44:01;86.82;;;36.28;;
23720;SDS011;42950;52.134;5.578;2022-12-11T03:46:29;88.30;;;34.40;;
23720;SDS011;42950;52.134;5.578;2022-12-11T03:48:58;88.60;;;35.60;;
23720;SDS011;42950;52.134;5.578;2022-12-11T03:51:28;82.45;;;35.40;;
23720;SDS011;42950;52.134;5.578;2022-12-11T03:53:55;79.90;;;34.85;;
23720;SDS011;42950;52.134;5.578;2022-12-11T03:56:21;87.18;;;37.30;;
23720;SDS011;42950;52.134;5.578;2022-12-11T03:58:50;78.50;;;35.63;;
23720;SDS011;42950;52.134;5.578;2022-12-11T04:01:16;82.82;;;35.65;;
23720;SDS011;42950;52.134;5.578;2022-12-11T04:03:41;84.38;;;36.70;;
23720;SDS011;42950;52.134;5.578;2022-12-11T04:06:07;81.70;;;35.67;;
23720;SDS011;42950;52.134;5.578;2022-12-11T04:08:33;84.03;;;35.97;;
23720;SDS011;42950;52.134;5.578;2022-12-11T04:10:58;80.10;;;37.13;;
23720;SDS011;42950;52.134;5.578;2022-12-11T04:13:42;78.43;;;35.67;;
23720;SDS011;42950;52.134;5.578;2022-12-11T04:16:08;74.13;;;34.67;;
23720;SDS011;42950;52.134;5.578;2022-12-11T04:18:34;74.90;;;36.30;;
23720;SDS011;42950;52.134;5.578;2022-12-11T04:21:18;69.25;;;33.20;;
23720;SDS011;42950;52.134;5.578;2022-12-11T04:24:07;77.22;;;36.05;;
23720;SDS011;42950;52.134;5.578;2022-12-11T04:26:39;72.90;;;35.42;;
23720;SDS011;42950;52.134;5.578;2022-12-11T04:29:04;69.70;;;35.13;;
23720;SDS011;42950;52.134;5.578;2022-12-11T04:31:30;68.95;;;34.33;;
23720;SDS011;42950;52.134;5.578;2022-12-11T04:33:56;72.38;;;34.55;;
23720;SDS011;42950;52.134;5.578;2022-12-11T04:36:22;63.80;;;32.90;;
23720;SDS011;42950;52.134;5.578;2022-12-11T04:38:47;64.57;;;33.20;;
23720;SDS011;42950;52.134;5.578;2022-12-11T04:41:13;63.53;;;33.38;;
23720;SDS011;42950;52.134;5.578;2022-12-11T04:43:40;63.85;;;33.30;;
23720;SDS011;42950;52.134;5.578;2022-12-11T04:46:10;65.43;;;32.92;;
23720;SDS011;42950;52.134;5.578;2022-12-11T04:48:38;66.10;;;34.05;;
23720;SDS011;42950;52.134;5.578;2022-12-11T04:51:04;66.93;;;33.03;;
23720;SDS011;42950;52.134;5.578;2022-12-11T04:53:31;68.65;;;34.55;;
23720;SDS011;42950;52.134;5.578;2022-12-11T04:55:56;65.93;;;34.38;;
23720;SDS011;42950;52.134;5.578;2022-12-11T04:58:22;62.10;;;32.05;;
23720;SDS011;42950;52.134;5.578;2022-12-11T05:00:49;70.40;;;37.05;;
23720;SDS011;42950;52.134;5.578;2022-12-11T05:03:15;64.03;;;33.67;;
23720;SDS011;42950;52.134;5.578;2022-12-11T05:05:46;66.10;;;34.15;;
23720;SDS011;42950;52.134;5.578;2022-12-11T05:08:12;62.42;;;32.47;;
23720;SDS011;42950;52.134;5.578;2022-12-11T05:10:38;59.45;;;32.75;;
23720;SDS011;42950;52.134;5.578;2022-12-11T05:13:03;64.82;;;33.03;;
23720;SDS011;42950;52.134;5.578;2022-12-11T05:15:29;68.78;;;35.72;;
23720;SDS011;42950;52.134;5.578;2022-12-11T05:17:54;64.68;;;33.42;;
23720;SDS011;42950;52.134;5.578;2022-12-11T05:20:20;61.65;;;32.65;;
23720;SDS011;42950;52.134;5.578;2022-12-11T05:22:45;58.00;;;31.05;;
23720;SDS011;42950;52.134;5.578;2022-12-11T05:25:11;61.00;;;32.63;;
23720;SDS011;42950;52.134;5.578;2022-12-11T05:27:36;55.30;;;31.63;;
23720;SDS011;42950;52.134;5.578;2022-12-11T05:30:02;53.25;;;29.77;;
23720;SDS011;42950;52.134;5.578;2022-12-11T05:32:28;53.40;;;30.27;;
23720;SDS011;42950;52.134;5.578;2022-12-11T05:34:53;47.70;;;28.23;;
23720;SDS011;42950;52.134;5.578;2022-12-11T05:37:19;46.78;;;27.83;;
23720;SDS011;42950;52.134;5.578;2022-12-11T05:39:44;46.38;;;28.08;;
23720;SDS011;42950;52.134;5.578;2022-12-11T05:42:10;50.17;;;28.48;;
23720;SDS011;42950;52.134;5.578;2022-12-11T05:44:35;48.92;;;28.83;;
23720;SDS011;42950;52.134;5.578;2022-12-11T05:47:01;54.40;;;30.38;;
23720;SDS011;42950;52.134;5.578;2022-12-11T05:49:26;47.15;;;28.25;;
23720;SDS011;42950;52.134;5.578;2022-12-11T05:51:52;50.65;;;27.45;;
23720;SDS011;42950;52.134;5.578;2022-12-11T05:54:17;44.63;;;26.70;;
23720;SDS011;42950;52.134;5.578;2022-12-11T05:56:43;44.25;;;26.92;;
23720;SDS011;42950;52.134;5.578;2022-12-11T05:59:08;46.85;;;28.83;;
23720;SDS011;42950;52.134;5.578;2022-12-11T06:01:35;45.83;;;25.70;;
23720;SDS011;42950;52.134;5.578;2022-12-11T06:04:03;49.03;;;29.60;;
23720;SDS011;42950;52.134;5.578;2022-12-11T06:06:30;48.58;;;29.45;;
23720;SDS011;42950;52.134;5.578;2022-12-11T06:08:57;47.47;;;27.92;;
23720;SDS011;42950;52.134;5.578;2022-12-11T06:11:24;50.50;;;29.13;;
23720;SDS011;42950;52.134;5.578;2022-12-11T06:13:52;46.63;;;27.67;;
23720;SDS011;42950;52.134;5.578;2022-12-11T06:16:19;47.80;;;27.48;;
23720;SDS011;42950;52.134;5.578;2022-12-11T06:18:45;51.28;;;29.00;;
23720;SDS011;42950;52.134;5.578;2022-12-11T06:21:15;46.83;;;28.40;;
23720;SDS011;42950;52.134;5.578;2022-12-11T06:23:53;48.08;;;28.52;;
23720;SDS011;42950;52.134;5.578;2022-12-11T06:26:19;52.03;;;28.83;;
23720;SDS011;42950;52.134;5.578;2022-12-11T06:28:46;48.88;;;29.15;;
23720;SDS011;42950;52.134;5.578;2022-12-11T06:31:12;47.35;;;28.20;;
23720;SDS011;42950;52.134;5.578;2022-12-11T06:33:38;44.92;;;27.27;;
23720;SDS011;42950;52.134;5.578;2022-12-11T06:36:05;45.33;;;27.60;;
23720;SDS011;42950;52.134;5.578;2022-12-11T06:38:32;46.97;;;27.77;;
23720;SDS011;42950;52.134;5.578;2022-12-11T06:40:58;45.78;;;27.25;;
23720;SDS011;42950;52.134;5.578;2022-12-11T06:43:26;47.55;;;28.13;;
23720;SDS011;42950;52.134;5.578;2022-12-11T06:45:52;45.70;;;27.58;;
23720;SDS011;42950;52.134;5.578;2022-12-11T06:48:18;48.38;;;28.13;;
23720;SDS011;42950;52.134;5.578;2022-12-11T06:50:44;52.63;;;29.20;;
23720;SDS011;42950;52.134;5.578;2022-12-11T06:53:10;51.17;;;29.02;;
23720;SDS011;42950;52.134;5.578;2022-12-11T06:55:37;44.47;;;26.73;;
23720;SDS011;42950;52.134;5.578;2022-12-11T06:58:02;46.95;;;27.77;;
23720;SDS011;42950;52.134;5.578;2022-12-11T07:00:28;45.78;;;26.45;;
23720;SDS011;42950;52.134;5.578;2022-12-11T07:02:54;47.28;;;27.85;;
23720;SDS011;42950;52.134;5.578;2022-12-11T07:05:19;48.63;;;28.15;;
23720;SDS011;42950;52.134;5.578;2022-12-11T07:07:45;47.08;;;27.33;;
23720;SDS011;42950;52.134;5.578;2022-12-11T07:10:11;43.88;;;26.73;;
23720;SDS011;42950;52.134;5.578;2022-12-11T07:12:36;46.47;;;27.83;;
23720;SDS011;42950;52.134;5.578;2022-12-11T07:15:03;44.97;;;26.73;;
23720;SDS011;42950;52.134;5.578;2022-12-11T07:17:29;49.97;;;28.35;;
23720;SDS011;42950;52.134;5.578;2022-12-11T07:19:55;48.72;;;29.63;;
23720;SDS011;42950;52.134;5.578;2022-12-11T07:22:21;47.28;;;28.50;;
23720;SDS011;42950;52.134;5.578;2022-12-11T07:24:47;51.60;;;28.50;;
23720;SDS011;42950;52.134;5.578;2022-12-11T07:27:12;49.78;;;29.52;;
23720;SDS011;42950;52.134;5.578;2022-12-11T07:29:38;50.38;;;29.95;;
23720;SDS011;42950;52.134;5.578;2022-12-11T07:32:03;49.78;;;29.67;;
23720;SDS011;42950;52.134;5.578;2022-12-11T07:34:29;49.83;;;29.15;;
23720;SDS011;42950;52.134;5.578;2022-12-11T07:36:55;47.05;;;28.95;;
23720;SDS011;42950;52.134;5.578;2022-12-11T07:39:20;46.53;;;28.65;;
23720;SDS011;42950;52.134;5.578;2022-12-11T07:41:46;45.55;;;28.13;;
23720;SDS011;42950;52.134;5.578;2022-12-11T07:44:11;47.60;;;29.85;;
23720;SDS011;42950;52.134;5.578;2022-12-11T07:46:37;45.10;;;28.13;;
23720;SDS011;42950;52.134;5.578;2022-12-11T07:49:04;48.47;;;30.02;;
23720;SDS011;42950;52.134;5.578;2022-12-11T07:51:31;51.10;;;30.08;;
23720;SDS011;42950;52.134;5.578;2022-12-11T07:54:03;49.70;;;28.58;;
23720;SDS011;42950;52.134;5.578;2022-12-11T07:56:31;41.92;;;27.27;;
23720;SDS011;42950;52.134;5.578;2022-12-11T07:58:58;44.83;;;27.15;;
23720;SDS011;42950;52.134;5.578;2022-12-11T08:01:25;49.40;;;31.42;;
23720;SDS011;42950;52.134;5.578;2022-12-11T08:03:52;47.90;;;29.80;;
23720;SDS011;42950;52.134;5.578;2022-12-11T08:06:18;51.05;;;30.67;;
23720;SDS011;42950;52.134;5.578;2022-12-11T08:08:48;52.88;;;33.58;;
23720;SDS011;42950;52.134;5.578;2022-12-11T08:11:14;49.45;;;32.50;;
23720;SDS011;42950;52.134;5.578;2022-12-11T08:13:40;51.47;;;32.95;;
23720;SDS011;42950;52.134;5.578;2022-12-11T08:16:07;49.95;;;32.75;;
23720;SDS011;42950;52.134;5.578;2022-12-11T08:18:35;50.03;;;32.25;;
23720;SDS011;42950;52.134;5.578;2022-12-11T08:21:08;51.40;;;32.78;;
23720;SDS011;42950;52.134;5.578;2022-12-11T08:23:37;48.53;;;32.25;;
23720;SDS011;42950;52.134;5.578;2022-12-11T08:26:04;52.92;;;33.83;;
23720;SDS011;42950;52.134;5.578;2022-12-11T08:28:31;52.33;;;33.80;;
23720;SDS011;42950;52.134;5.578;2022-12-11T08:30:57;51.85;;;32.45;;
23720;SDS011;42950;52.134;5.578;2022-12-11T08:33:23;49.58;;;32.47;;
23720;SDS011;42950;52.134;5.578;2022-12-11T08:35:49;55.88;;;34.47;;
23720;SDS011;42950;52.134;5.578;2022-12-11T08:38:15;54.15;;;33.13;;
23720;SDS011;42950;52.134;5.578;2022-12-11T08:40:40;49.60;;;31.85;;
23720;SDS011;42950;52.134;5.578;2022-12-11T08:43:06;50.03;;;30.52;;
23720;SDS011;42950;52.134;5.578;2022-12-11T08:45:31;41.53;;;27.05;;
23720;SDS011;42950;52.134;5.578;2022-12-11T08:47:58;42.20;;;26.25;;
23720;SDS011;42950;52.134;5.578;2022-12-11T08:50:24;41.80;;;25.58;;
23720;SDS011;42950;52.134;5.578;2022-12-11T08:52:49;38.92;;;25.20;;
23720;SDS011;42950;52.134;5.578;2022-12-11T08:55:15;37.92;;;24.20;;
23720;SDS011;42950;52.134;5.578;2022-12-11T08:57:40;38.17;;;24.08;;
23720;SDS011;42950;52.134;5.578;2022-12-11T09:00:07;37.38;;;22.90;;
23720;SDS011;42950;52.134;5.578;2022-12-11T09:02:36;34.28;;;21.15;;
23720;SDS011;42950;52.134;5.578;2022-12-11T09:05:02;34.08;;;21.38;;
23720;SDS011;42950;52.134;5.578;2022-12-11T09:07:31;33.60;;;21.33;;
23720;SDS011;42950;52.134;5.578;2022-12-11T09:10:02;36.17;;;21.73;;
23720;SDS011;42950;52.134;5.578;2022-12-11T09:12:29;35.45;;;21.63;;
23720;SDS011;42950;52.134;5.578;2022-12-11T09:14:55;38.38;;;23.08;;
23720;SDS011;42950;52.134;5.578;2022-12-11T09:17:20;34.63;;;21.73;;
23720;SDS011;42950;52.134;5.578;2022-12-11T09:19:46;34.45;;;21.50;;
23720;SDS011;42950;52.134;5.578;2022-12-11T09:22:12;32.75;;;20.55;;
23720;SDS011;42950;52.134;5.578;2022-12-11T09:24:37;35.50;;;21.08;;
23720;SDS011;42950;52.134;5.578;2022-12-11T09:27:04;36.30;;;22.10;;
23720;SDS011;42950;52.134;5.578;2022-12-11T09:29:30;34.90;;;21.27;;
23720;SDS011;42950;52.134;5.578;2022-12-11T09:31:56;36.88;;;21.88;;
23720;SDS011;42950;52.134;5.578;2022-12-11T09:34:21;35.85;;;22.40;;
23720;SDS011;42950;52.134;5.578;2022-12-11T09:36:47;39.10;;;23.63;;
23720;SDS011;42950;52.134;5.578;2022-12-11T09:39:13;36.85;;;22.23;;
23720;SDS011;42950;52.134;5.578;2022-12-11T09:44:37;36.70;;;22.85;;
23720;SDS011;42950;52.134;5.578;2022-12-11T09:47:26;35.45;;;22.38;;
23720;SDS011;42950;52.134;5.578;2022-12-11T09:50:02;36.53;;;22.13;;
23720;SDS011;42950;52.134;5.578;2022-12-11T09:56:26;41.40;;;26.45;;
23720;SDS011;42950;52.134;5.578;2022-12-11T10:01:50;43.65;;;28.13;;
23720;SDS011;42950;52.134;5.578;2022-12-11T10:04:37;38.72;;;26.55;;
23720;SDS011;42950;52.134;5.578;2022-12-11T10:07:18;37.00;;;24.05;;
23720;SDS011;42950;52.134;5.578;2022-12-11T10:09:59;36.88;;;24.05;;
23720;SDS011;42950;52.134;5.578;2022-12-11T10:17:57;35.17;;;23.00;;
23720;SDS011;42950;52.134;5.578;2022-12-11T10:20:26;35.92;;;23.90;;
23720;SDS011;42950;52.134;5.578;2022-12-11T10:22:55;39.88;;;24.50;;
23720;SDS011;42950;52.134;5.578;2022-12-11T10:25:34;41.78;;;25.45;;
23720;SDS011;42950;52.134;5.578;2022-12-11T10:28:13;40.63;;;24.35;;
23720;SDS011;42950;52.134;5.578;2022-12-11T10:30:46;38.85;;;25.00;;
23720;SDS011;42950;52.134;5.578;2022-12-11T10:33:17;37.13;;;23.35;;
23720;SDS011;42950;52.134;5.578;2022-12-11T10:35:46;34.60;;;22.58;;
23720;SDS011;42950;52.134;5.578;2022-12-11T10:38:23;36.40;;;23.52;;
23720;SDS011;42950;52.134;5.578;2022-12-11T10:40:54;40.22;;;23.88;;
23720;SDS011;42950;52.134;5.578;2022-12-11T10:43:38;35.58;;;22.90;;
23720;SDS011;42950;52.134;5.578;2022-12-11T10:46:11;35.13;;;22.33;;
23720;SDS011;42950;52.134;5.578;2022-12-11T10:48:56;38.22;;;23.17;;
23720;SDS011;42950;52.134;5.578;2022-12-11T10:54:15;34.20;;;23.05;;
23720;SDS011;42950;52.134;5.578;2022-12-11T10:56:52;35.92;;;22.38;;
23720;SDS011;42950;52.134;5.578;2022-12-11T10:59:21;33.65;;;21.75;;
23720;SDS011;42950;52.134;5.578;2022-12-11T11:02:00;33.05;;;21.95;;
23720;SDS011;42950;52.134;5.578;2022-12-11T11:04:34;37.45;;;23.48;;
23720;SDS011;42950;52.134;5.578;2022-12-11T11:09:36;39.08;;;23.65;;
23720;SDS011;42950;52.134;5.578;2022-12-11T11:12:03;36.83;;;24.60;;
23720;SDS011;42950;52.134;5.578;2022-12-11T11:14:40;37.45;;;23.38;;
23720;SDS011;42950;52.134;5.578;2022-12-11T11:17:10;35.03;;;23.58;;
23720;SDS011;42950;52.134;5.578;2022-12-11T11:19:39;37.05;;;22.33;;
23720;SDS011;42950;52.134;5.578;2022-12-11T11:22:13;32.55;;;21.73;;
23720;SDS011;42950;52.134;5.578;2022-12-11T11:24:42;36.28;;;22.63;;
23720;SDS011;42950;52.134;5.578;2022-12-11T11:27:33;37.58;;;23.58;;
23720;SDS011;42950;52.134;5.578;2022-12-11T11:30:20;33.70;;;22.08;;
23720;SDS011;42950;52.134;5.578;2022-12-11T11:32:58;31.35;;;20.52;;
23720;SDS011;42950;52.134;5.578;2022-12-11T11:35:29;34.53;;;21.33;;
23720;SDS011;42950;52.134;5.578;2022-12-11T11:40:36;31.77;;;20.13;;
23720;SDS011;42950;52.134;5.578;2022-12-11T11:43:09;32.35;;;21.98;;
23720;SDS011;42950;52.134;5.578;2022-12-11T11:45:57;31.85;;;20.08;;
23720;SDS011;42950;52.134;5.578;2022-12-11T11:48:29;32.72;;;20.70;;
23720;SDS011;42950;52.134;5.578;2022-12-11T11:50:58;29.67;;;20.40;;
23720;SDS011;42950;52.134;5.578;2022-12-11T11:53:31;33.45;;;20.63;;
23720;SDS011;42950;52.134;5.578;2022-12-11T11:59:10;30.77;;;20.02;;
23720;SDS011;42950;52.134;5.578;2022-12-11T12:01:43;33.63;;;22.05;;
23720;SDS011;42950;52.134;5.578;2022-12-11T12:04:09;33.05;;;20.77;;
23720;SDS011;42950;52.134;5.578;2022-12-11T12:09:39;32.50;;;20.98;;
23720;SDS011;42950;52.134;5.578;2022-12-11T12:15:29;34.67;;;20.60;;
23720;SDS011;42950;52.134;5.578;2022-12-11T12:20:35;35.65;;;20.95;;
23720;SDS011;42950;52.134;5.578;2022-12-11T12:26:10;32.30;;;22.15;;
23720;SDS011;42950;52.134;5.578;2022-12-11T12:37:06;32.88;;;21.08;;
23720;SDS011;42950;52.134;5.578;2022-12-11T12:40:02;33.72;;;21.35;;
23720;SDS011;42950;52.134;5.578;2022-12-11T12:48:18;34.55;;;20.73;;
23720;SDS011;42950;52.134;5.578;2022-12-11T12:50:45;32.85;;;21.70;;
23720;SDS011;42950;52.134;5.578;2022-12-11T12:53:15;33.28;;;20.77;;
23720;SDS011;42950;52.134;5.578;2022-12-11T12:55:45;31.40;;;20.90;;
23720;SDS011;42950;52.134;5.578;2022-12-11T13:01:08;35.92;;;21.73;;
23720;SDS011;42950;52.134;5.578;2022-12-11T13:03:55;34.75;;;21.80;;
23720;SDS011;42950;52.134;5.578;2022-12-11T13:09:15;36.28;;;22.92;;
23720;SDS011;42950;52.134;5.578;2022-12-11T13:11:44;35.90;;;22.88;;
23720;SDS011;42950;52.134;5.578;2022-12-11T13:16:40;33.28;;;21.70;;
23720;SDS011;42950;52.134;5.578;2022-12-11T13:21:57;35.88;;;22.13;;
23720;SDS011;42950;52.134;5.578;2022-12-11T13:24:45;33.22;;;21.75;;
23720;SDS011;42950;52.134;5.578;2022-12-11T13:27:22;36.85;;;22.73;;
23720;SDS011;42950;52.134;5.578;2022-12-11T13:29:49;43.85;;;24.17;;
23720;SDS011;42950;52.134;5.578;2022-12-11T13:34:42;39.10;;;22.85;;
23720;SDS011;42950;52.134;5.578;2022-12-11T13:37:24;37.42;;;23.42;;
23720;SDS011;42950;52.134;5.578;2022-12-11T13:39:57;38.95;;;25.08;;
23720;SDS011;42950;52.134;5.578;2022-12-11T13:42:26;39.33;;;25.25;;
23720;SDS011;42950;52.134;5.578;2022-12-11T13:44:55;40.63;;;23.27;;
23720;SDS011;42950;52.134;5.578;2022-12-11T13:47:22;40.60;;;24.08;;
23720;SDS011;42950;52.134;5.578;2022-12-11T13:49:49;36.78;;;23.30;;
23720;SDS011;42950;52.134;5.578;2022-12-11T13:52:20;37.55;;;22.25;;
23720;SDS011;42950;52.134;5.578;2022-12-11T13:54:51;37.13;;;22.90;;
23720;SDS011;42950;52.134;5.578;2022-12-11T13:57:20;33.67;;;21.55;;
23720;SDS011;42950;52.134;5.578;2022-12-11T13:59:54;38.28;;;22.98;;
23720;SDS011;42950;52.134;5.578;2022-12-11T14:05:07;33.72;;;22.92;;
23720;SDS011;42950;52.134;5.578;2022-12-11T14:07:42;35.85;;;22.95;;
23720;SDS011;42950;52.134;5.578;2022-12-11T14:10:19;38.13;;;23.38;;
23720;SDS011;42950;52.134;5.578;2022-12-11T14:12:50;34.80;;;22.73;;
23720;SDS011;42950;52.134;5.578;2022-12-11T14:15:26;36.10;;;23.27;;
23720;SDS011;42950;52.134;5.578;2022-12-11T14:17:53;36.90;;;23.25;;
23720;SDS011;42950;52.134;5.578;2022-12-11T14:22:49;40.40;;;23.05;;
23720;SDS011;42950;52.134;5.578;2022-12-11T14:25:22;38.15;;;23.98;;
23720;SDS011;42950;52.134;5.578;2022-12-11T14:27:50;39.90;;;23.77;;
23720;SDS011;42950;52.134;5.578;2022-12-11T14:30:22;38.08;;;23.80;;
23720;SDS011;42950;52.134;5.578;2022-12-11T14:32:49;38.72;;;23.50;;
23720;SDS011;42950;52.134;5.578;2022-12-11T14:35:29;40.55;;;24.92;;
23720;SDS011;42950;52.134;5.578;2022-12-11T14:38:01;41.33;;;24.48;;
23720;SDS011;42950;52.134;5.578;2022-12-11T14:40:34;33.53;;;22.88;;
23720;SDS011;42950;52.134;5.578;2022-12-11T14:43:08;37.20;;;22.95;;
23720;SDS011;42950;52.134;5.578;2022-12-11T14:45:39;39.70;;;24.05;;
23720;SDS011;42950;52.134;5.578;2022-12-11T14:48:11;38.75;;;24.35;;
23720;SDS011;42950;52.134;5.578;2022-12-11T14:50:42;41.97;;;26.17;;
23720;SDS011;42950;52.134;5.578;2022-12-11T14:53:16;45.63;;;26.75;;
23720;SDS011;42950;52.134;5.578;2022-12-11T14:55:46;40.75;;;25.50;;
23720;SDS011;42950;52.134;5.578;2022-12-11T14:58:15;41.90;;;25.75;;
23720;SDS011;42950;52.134;5.578;2022-12-11T15:00:54;42.92;;;25.60;;
23720;SDS011;42950;52.134;5.578;2022-12-11T15:03:38;41.28;;;24.27;;
23720;SDS011;42950;52.134;5.578;2022-12-11T15:08:50;42.70;;;24.38;;
23720;SDS011;42950;52.134;5.578;2022-12-11T15:11:16;46.17;;;24.40;;
23720;SDS011;42950;52.134;5.578;2022-12-11T15:16:25;40.05;;;23.95;;
23720;SDS011;42950;52.134;5.578;2022-12-11T15:18:53;43.90;;;25.45;;
23720;SDS011;42950;52.134;5.578;2022-12-11T15:21:30;43.40;;;26.25;;
23720;SDS011;42950;52.134;5.578;2022-12-11T15:23:58;47.30;;;26.52;;
23720;SDS011;42950;52.134;5.578;2022-12-11T15:26:33;43.08;;;24.48;;
23720;SDS011;42950;52.134;5.578;2022-12-11T15:29:00;43.95;;;25.52;;
23720;SDS011;42950;52.134;5.578;2022-12-11T15:31:29;41.13;;;26.15;;
23720;SDS011;42950;52.134;5.578;2022-12-11T15:33:57;45.05;;;28.10;;
23720;SDS011;42950;52.134;5.578;2022-12-11T15:36:25;44.38;;;28.48;;
23720;SDS011;42950;52.134;5.578;2022-12-11T15:38:53;49.28;;;30.08;;
23720;SDS011;42950;52.134;5.578;2022-12-11T15:41:19;53.45;;;30.05;;
23720;SDS011;42950;52.134;5.578;2022-12-11T15:43:45;44.50;;;27.30;;
23720;SDS011;42950;52.134;5.578;2022-12-11T15:46:11;42.00;;;26.48;;
23720;SDS011;42950;52.134;5.578;2022-12-11T15:48:37;42.90;;;26.70;;
23720;SDS011;42950;52.134;5.578;2022-12-11T15:51:03;42.88;;;24.35;;
23720;SDS011;42950;52.134;5.578;2022-12-11T15:53:28;40.45;;;25.02;;
23720;SDS011;42950;52.134;5.578;2022-12-11T15:55:54;39.85;;;24.60;;
23720;SDS011;42950;52.134;5.578;2022-12-11T15:58:22;45.38;;;27.90;;
23720;SDS011;42950;52.134;5.578;2022-12-11T16:00:48;40.45;;;24.60;;
23720;SDS011;42950;52.134;5.578;2022-12-11T16:03:15;43.92;;;25.33;;
23720;SDS011;42950;52.134;5.578;2022-12-11T16:05:42;43.25;;;27.25;;
23720;SDS011;42950;52.134;5.578;2022-12-11T16:08:15;43.95;;;26.33;;
23720;SDS011;42950;52.134;5.578;2022-12-11T16:10:42;42.45;;;26.30;;